createdAt,value
2018-06-18T00:00:24.572Z,6.82
2018-06-18T00:06:19.568Z,7.18
2018-06-18T00:12:14.609Z,6.9
2018-06-18T00:18:09.525Z,7.51
2018-06-18T00:24:04.587Z,7.63
2018-06-18T00:29:59.624Z,7.63
2018-06-18T00:35:54.560Z,7.27
2018-06-18T00:41:49.625Z,7.23
2018-06-18T00:47:44.579Z,7.61
2018-06-18T00:53:39.581Z,7.49
2018-06-18T00:59:34.603Z,7.71
2018-06-18T01:05:29.599Z,7.45
2018-06-18T01:11:24.621Z,8.14
2018-06-18T01:17:19.626Z,8.01
2018-06-18T01:23:14.630Z,8.05
2018-06-18T01:29:09.592Z,8.47
2018-06-18T01:35:04.627Z,8.35
2018-06-18T01:40:59.613Z,8.31
2018-06-18T01:46:54.653Z,8.52
2018-06-18T01:52:49.742Z,8.28
2018-06-18T01:58:44.601Z,8.16
2018-06-18T02:04:39.633Z,8.24
2018-06-18T02:10:34.640Z,8.13
2018-06-18T02:16:29.657Z,8.57
2018-06-18T02:22:24.678Z,8.26
2018-06-18T02:28:19.703Z,7.57
2018-06-18T02:34:14.633Z,7.9
2018-06-18T02:40:09.693Z,8.41
2018-06-18T02:46:04.681Z,8.25
2018-06-18T02:51:59.687Z,8.28
2018-06-18T02:57:54.774Z,7.51
2018-06-18T03:03:49.667Z,8.27
2018-06-18T03:09:44.747Z,8.8
2018-06-18T03:15:39.660Z,8.03
2018-06-18T03:21:34.692Z,8.32
2018-06-18T03:27:29.731Z,7.93
2018-06-18T03:33:24.722Z,8.24
2018-06-18T03:39:19.709Z,7.44
2018-06-18T03:45:14.758Z,8.1
2018-06-18T03:51:09.712Z,7.8
2018-06-18T03:57:04.715Z,9.25
2018-06-18T04:02:59.714Z,8.18
2018-06-18T04:08:54.747Z,7.7
2018-06-18T04:14:49.729Z,8.19
2018-06-18T04:20:44.731Z,7.84
2018-06-18T04:26:39.748Z,8.33
2018-06-18T04:32:34.719Z,8.04
2018-06-18T04:38:29.756Z,7.63
2018-06-18T04:44:24.740Z,7.94
2018-06-18T04:50:19.741Z,8.61
2018-06-18T04:56:14.747Z,8.52
2018-06-18T05:02:09.728Z,8
2018-06-18T05:08:04.792Z,8.25
2018-06-18T05:13:59.773Z,8.35
2018-06-18T05:19:54.825Z,8.55
2018-06-18T05:25:49.770Z,9.32
2018-06-18T05:31:44.849Z,8.82
2018-06-18T05:37:39.837Z,8.38
2018-06-18T05:43:34.818Z,8.91
2018-06-18T05:49:29.830Z,9.21
2018-06-18T05:55:24.827Z,9.24
2018-06-18T06:01:19.799Z,10.34
2018-06-18T06:07:14.795Z,9.75
2018-06-18T06:13:09.857Z,9.85
2018-06-18T06:19:04.856Z,9.51
2018-06-18T06:24:59.862Z,10.09
2018-06-18T06:30:54.843Z,9.16
2018-06-18T06:36:49.849Z,9.57
2018-06-18T06:42:44.908Z,10.27
2018-06-18T06:48:39.897Z,11.34
2018-06-18T06:54:34.841Z,11.67
2018-06-18T07:00:29.866Z,9.94
2018-06-18T07:06:24.907Z,9.93
2018-06-18T07:12:19.877Z,11.11
2018-06-18T07:18:14.846Z,9.9
2018-06-18T07:24:09.903Z,9.63
2018-06-18T07:30:04.839Z,7.62
2018-06-18T07:35:59.886Z,5.04
2018-06-18T07:41:54.902Z,4.57
2018-06-18T07:47:49.882Z,4.66
2018-06-18T07:53:44.873Z,4.29
2018-06-18T07:59:39.891Z,4.17
2018-06-18T08:05:34.944Z,4.7
2018-06-18T08:11:29.932Z,4.67
2018-06-18T08:17:24.904Z,4.82
2018-06-18T08:23:19.921Z,4.68
2018-06-18T08:29:14.961Z,4.31
2018-06-18T08:35:09.955Z,4.59
2018-06-18T08:41:04.927Z,4.64
2018-06-18T08:46:59.904Z,4.69
2018-06-18T08:52:54.946Z,4.6
2018-06-18T08:58:49.940Z,5.35
2018-06-18T09:04:44.972Z,4.63
2018-06-18T09:10:39.957Z,5.22
2018-06-18T09:16:34.968Z,4.99
2018-06-18T09:22:29.949Z,5.03
2018-06-18T09:28:24.950Z,5.26
2018-06-18T09:34:20.000Z,5.1
2018-06-18T09:40:15.014Z,5.35
2018-06-18T09:46:09.994Z,5.66
2018-06-18T09:52:05.010Z,5.6
2018-06-18T09:57:59.967Z,4.82
2018-06-18T10:03:54.988Z,5.17
2018-06-18T10:09:49.991Z,5.46
2018-06-18T10:15:44.975Z,5.15
2018-06-18T10:21:39.984Z,5.76
2018-06-18T10:27:35.074Z,6.21
2018-06-18T10:33:30.068Z,5.12
2018-06-18T10:39:25.021Z,5.3
2018-06-18T10:45:20.046Z,13.9
2018-06-18T10:51:15.093Z,5.89
2018-06-18T10:57:10.035Z,5.15
2018-06-18T11:03:05.076Z,5.34
2018-06-18T11:09:00.077Z,5.82
2018-06-18T11:14:55.063Z,4.73
2018-06-18T11:20:50.106Z,5.17
2018-06-18T11:26:45.195Z,4.85
2018-06-18T11:32:40.122Z,5.59
2018-06-18T11:38:35.149Z,5.01
2018-06-18T11:44:30.080Z,4.7
2018-06-18T11:50:25.088Z,4.97
2018-06-18T11:56:20.171Z,5.27
2018-06-18T12:02:15.108Z,4.44
2018-06-18T12:08:10.075Z,4.82
2018-06-18T12:14:05.113Z,4.61
2018-06-18T12:20:00.120Z,4.44
2018-06-18T12:25:55.148Z,4.48
2018-06-18T12:31:50.156Z,4.32
2018-06-18T12:37:45.092Z,4.37
2018-06-18T12:43:40.133Z,4.47
2018-06-18T12:49:35.120Z,4.57
2018-06-18T12:55:30.143Z,5.03
2018-06-18T13:01:25.222Z,4.53
2018-06-18T13:07:20.188Z,4.72
2018-06-18T13:13:15.136Z,4.45
2018-06-18T13:19:10.278Z,4.7
2018-06-18T13:25:05.139Z,4.37
2018-06-18T13:31:00.157Z,4.5
2018-06-18T13:36:55.219Z,5.25
2018-06-18T13:42:50.146Z,4.92
2018-06-18T13:48:45.180Z,4.45
2018-06-18T13:54:40.170Z,4.16
2018-06-18T14:00:35.223Z,3.88
2018-06-18T14:06:30.202Z,3.84
2018-06-18T14:12:25.183Z,3.76
2018-06-18T14:18:20.228Z,3.6
2018-06-18T14:24:15.263Z,3.28
2018-06-18T14:30:10.251Z,3.09
2018-06-18T14:36:05.233Z,3.15
2018-06-18T14:42:00.374Z,3.69
2018-06-18T14:47:55.249Z,3.82
2018-06-18T14:53:50.302Z,3.23
2018-06-18T14:59:45.298Z,3.23
2018-06-18T15:05:40.234Z,3.07
2018-06-18T15:11:35.337Z,3.3
2018-06-18T15:17:30.309Z,3.52
2018-06-18T15:23:25.282Z,3.37
2018-06-18T15:29:20.251Z,3.24
2018-06-18T15:35:15.310Z,3.53
2018-06-18T15:41:10.273Z,3.2
2018-06-18T15:47:05.347Z,3.24
2018-06-18T15:53:00.303Z,3.18
2018-06-18T15:58:55.326Z,3.83
2018-06-18T16:04:50.310Z,3.74
2018-06-18T16:10:45.464Z,3.52
2018-06-18T16:16:40.390Z,3.88
2018-06-18T16:22:35.365Z,3.87
2018-06-18T16:28:30.327Z,3.97
2018-06-18T16:34:25.334Z,5.27
2018-06-18T16:40:20.326Z,4.58
2018-06-18T16:46:15.333Z,4.15
2018-06-18T16:52:10.350Z,4.71
2018-06-18T16:58:05.383Z,4.57
2018-06-18T17:04:00.368Z,4.48
2018-06-18T17:09:55.361Z,4.54
2018-06-18T17:15:50.408Z,4.71
2018-06-18T17:21:45.422Z,4.25
2018-06-18T17:27:40.490Z,4.43
2018-06-18T17:33:35.355Z,5.23
2018-06-18T17:39:30.387Z,4.75
2018-06-18T17:45:25.428Z,4.26
2018-06-18T17:51:20.474Z,5.33
2018-06-18T17:57:15.570Z,5.5
2018-06-18T18:03:10.406Z,6.07
2018-06-18T18:09:05.403Z,5.45
2018-06-18T18:15:00.406Z,5.82
2018-06-18T18:20:55.472Z,5.43
2018-06-18T18:26:50.424Z,4.83
2018-06-18T18:32:45.522Z,5.33
2018-06-18T18:38:40.495Z,4.97
2018-06-18T18:44:35.413Z,5.3
2018-06-18T18:50:30.422Z,5.8
2018-06-18T18:56:25.498Z,5.29
2018-06-18T19:02:20.493Z,5.42
2018-06-18T19:08:15.475Z,6.06
2018-06-18T19:14:10.452Z,5.55
2018-06-18T19:20:05.510Z,5.15
2018-06-18T19:26:00.473Z,5.3
2018-06-18T19:31:55.476Z,5.56
2018-06-18T19:37:50.503Z,5.67
2018-06-18T19:43:45.516Z,5.85
2018-06-18T19:49:40.512Z,5.22
2018-06-18T19:55:35.505Z,5.78
2018-06-18T20:01:30.551Z,5.96
2018-06-18T20:07:25.551Z,5.68
2018-06-18T20:13:20.562Z,5.72
2018-06-18T20:19:15.622Z,5.78
2018-06-18T20:25:10.585Z,6.16
2018-06-18T20:31:05.552Z,5.59
2018-06-18T20:37:00.537Z,5.46
2018-06-18T20:42:55.521Z,6.08
2018-06-18T20:48:50.572Z,6.53
2018-06-18T20:54:45.566Z,6.17
2018-06-18T21:00:40.595Z,8.3
2018-06-18T21:06:35.566Z,7.07
2018-06-18T21:12:30.564Z,6.16
2018-06-18T21:18:25.626Z,6.7
2018-06-18T21:24:20.594Z,8.14
2018-06-18T21:30:15.641Z,7.69
2018-06-18T21:36:10.696Z,6.43
2018-06-18T21:42:05.627Z,6.58
2018-06-18T21:48:00.589Z,6.43
2018-06-18T21:53:55.599Z,6.4
2018-06-18T21:59:50.638Z,6
2018-06-18T22:05:45.683Z,6.57
2018-06-18T22:11:40.614Z,11.97
2018-06-18T22:17:35.623Z,7.6
2018-06-18T22:23:30.684Z,7.53
2018-06-18T22:29:25.590Z,8.43
2018-06-18T22:35:20.623Z,7.97
2018-06-18T22:41:15.636Z,7.38
2018-06-18T22:47:10.665Z,8.16
2018-06-18T22:53:08.961Z,7.51
2018-06-18T22:59:00.650Z,7.79
2018-06-18T23:04:55.641Z,7.19
2018-06-18T23:10:50.698Z,7.45
2018-06-18T23:16:45.720Z,7.94
2018-06-18T23:22:40.744Z,8.14
2018-06-18T23:28:35.669Z,7.32
2018-06-18T23:34:30.704Z,6.9
2018-06-18T23:40:25.688Z,7.9
2018-06-18T23:46:20.727Z,8.91
2018-06-18T23:52:15.732Z,7.56
2018-06-18T23:58:10.698Z,9.24
